createdAt,value
2023-02-01T00:05:25.689Z,4.01
2023-02-01T00:10:50.681Z,4.03
2023-02-01T00:16:17.773Z,4.03
2023-02-01T00:21:45.684Z,3.91
2023-02-01T00:27:10.744Z,3.81
2023-02-01T00:32:34.711Z,3.88
2023-02-01T00:38:02.684Z,3.87
2023-02-01T00:43:28.706Z,3.96
2023-02-01T00:48:56.731Z,3.98
2023-02-01T00:54:24.938Z,3.94
2023-02-01T00:59:55.712Z,3.97
2023-02-01T01:05:20.714Z,3.93
2023-02-01T01:10:48.792Z,3.90
2023-02-01T01:16:16.774Z,3.95
2023-02-01T01:21:42.749Z,3.83
2023-02-01T01:27:10.734Z,3.85
2023-02-01T01:32:36.023Z,3.80
2023-02-01T01:38:01.727Z,3.84
2023-02-01T01:43:33.968Z,3.77
2023-02-01T01:49:02.974Z,3.82
2023-02-01T01:54:33.748Z,3.80
2023-02-01T02:00:08.760Z,3.83
2023-02-01T02:05:37.012Z,3.82
2023-02-01T02:11:10.741Z,3.84
2023-02-01T02:17:04.948Z,3.84
2023-02-01T02:22:58.808Z,3.84
2023-02-01T02:28:37.776Z,3.89
2023-02-01T02:34:22.853Z,3.87
2023-02-01T02:46:27.251Z,3.78
2023-02-01T02:52:18.835Z,3.81
2023-02-01T02:58:00.768Z,3.81
2023-02-01T03:03:38.815Z,3.70
2023-02-01T03:09:10.739Z,3.83
2023-02-01T03:20:34.960Z,3.67
2023-02-01T03:26:09.779Z,3.69
2023-02-01T03:31:34.823Z,3.67
2023-02-01T03:37:06.780Z,3.54
2023-02-01T03:42:40.795Z,3.50
2023-02-01T03:48:08.914Z,3.45
2023-02-01T03:53:39.078Z,3.47
2023-02-01T03:59:10.793Z,3.47
2023-02-01T04:04:35.808Z,3.41
2023-02-01T04:10:00.836Z,3.43
2023-02-01T04:20:47.779Z,3.37
2023-02-01T04:26:14.859Z,3.47
2023-02-01T04:31:43.863Z,3.53
2023-02-01T04:37:09.846Z,3.59
2023-02-01T04:42:33.821Z,3.54
2023-02-01T04:48:01.934Z,3.53
2023-02-01T04:53:26.805Z,3.38
2023-02-01T04:58:51.919Z,3.28
2023-02-01T05:04:19.960Z,3.28
2023-02-01T05:09:44.823Z,3.23
2023-02-01T05:15:09.857Z,3.24
2023-02-01T05:20:37.842Z,3.17
2023-02-01T05:26:02.965Z,3.18
2023-02-01T05:31:27.907Z,3.08
2023-02-01T05:36:54.831Z,3.05
2023-02-01T05:42:20.156Z,3.03
2023-02-01T05:47:43.828Z,3.00
2023-02-01T05:53:17.838Z,3.02
2023-02-01T05:58:42.944Z,3.05
2023-02-01T06:04:08.962Z,3.10
2023-02-01T06:09:37.823Z,3.01
2023-02-01T06:15:02.140Z,3.05
2023-02-01T06:20:27.878Z,3.04
2023-02-01T06:25:55.873Z,3.09
2023-02-01T06:31:20.978Z,3.27
2023-02-01T06:36:45.887Z,3.43
2023-02-01T06:42:13.872Z,3.55
2023-02-01T06:47:38.921Z,3.62
2023-02-01T06:53:03.881Z,3.64
2023-02-01T06:58:30.882Z,3.60
2023-02-01T07:03:58.848Z,3.57
2023-02-01T07:09:23.880Z,3.58
2023-02-01T07:14:52.017Z,3.59
2023-02-01T07:20:15.868Z,3.66
2023-02-01T07:25:40.883Z,3.62
2023-02-01T07:31:08.950Z,3.62
2023-02-01T07:36:34.849Z,3.68
2023-02-01T07:41:58.903Z,3.81
2023-02-01T07:47:27.897Z,3.78
2023-02-01T07:52:51.889Z,3.78
2023-02-01T07:58:17.881Z,3.80
2023-02-01T08:03:45.877Z,3.76
2023-02-01T08:09:10.940Z,3.80
2023-02-01T08:14:34.876Z,3.81
2023-02-01T08:20:02.910Z,3.70
2023-02-01T08:25:27.250Z,3.79
2023-02-01T08:30:52.944Z,3.80
2023-02-01T08:36:21.926Z,3.85
2023-02-01T08:41:47.924Z,3.96
2023-02-01T08:47:13.926Z,4.04
2023-02-01T08:52:41.898Z,4.03
2023-02-01T08:58:07.172Z,4.00
2023-02-01T09:03:31.916Z,4.01
2023-02-01T09:08:58.963Z,3.91
2023-02-01T09:14:23.898Z,3.97
2023-02-01T09:19:50.081Z,3.98
2023-02-01T09:25:19.258Z,3.94
2023-02-01T09:30:45.082Z,4.01
2023-02-01T09:36:11.949Z,4.16
2023-02-01T09:41:49.986Z,4.32
2023-02-01T09:47:22.957Z,4.41
2023-02-01T09:52:53.956Z,4.58
2023-02-01T09:58:25.927Z,4.68
2023-02-01T10:03:51.978Z,4.76
2023-02-01T10:09:39.286Z,4.65
2023-02-01T10:15:15.946Z,4.58
2023-02-01T10:20:54.939Z,4.57
2023-02-01T10:26:28.991Z,4.60
2023-02-01T10:31:57.060Z,4.69
2023-02-01T10:37:41.945Z,4.87
2023-02-01T10:43:10.964Z,5.11
2023-02-01T10:48:38.003Z,5.11
2023-02-01T10:54:08.958Z,5.01
2023-02-01T10:59:45.877Z,5.07
2023-02-01T11:05:19.969Z,5.27
2023-02-01T11:10:55.001Z,5.20
2023-02-01T11:16:25.057Z,5.19
2023-02-01T11:21:51.996Z,5.27
2023-02-01T11:27:27.791Z,5.33
2023-02-01T11:32:55.008Z,5.48
2023-02-01T11:38:32.061Z,5.33
2023-02-01T11:44:12.169Z,5.32
2023-02-01T11:49:37.984Z,5.31
2023-02-01T11:55:23.964Z,5.27
2023-02-01T12:01:06.981Z,5.30
2023-02-01T12:06:40.035Z,5.25
2023-02-01T12:12:18.038Z,5.18
2023-02-01T12:18:10.006Z,5.17
2023-02-01T12:23:44.011Z,5.14
2023-02-01T12:29:34.020Z,5.12
2023-02-01T12:35:26.087Z,5.16
2023-02-01T12:41:01.028Z,5.19
2023-02-01T12:46:35.345Z,5.17
2023-02-01T12:52:04.136Z,5.12
2023-02-01T12:57:36.050Z,5.12
2023-02-01T13:03:17.018Z,5.14
2023-02-01T13:08:52.029Z,5.09
2023-02-01T13:14:22.064Z,5.11
2023-02-01T13:19:55.033Z,5.08
2023-02-01T13:25:28.048Z,5.07
2023-02-01T13:31:29.144Z,5.09
2023-02-01T13:37:19.057Z,5.08
2023-02-01T13:42:58.464Z,5.04
2023-02-01T13:48:40.575Z,5.01
2023-02-01T13:54:13.194Z,5.01
2023-02-01T13:59:58.281Z,5.08
2023-02-01T14:06:10.058Z,5.19
2023-02-01T14:11:54.047Z,5.11
2023-02-01T14:17:44.057Z,5.12
2023-02-01T14:23:18.061Z,5.19
2023-02-01T14:28:49.265Z,5.23
2023-02-01T14:34:16.095Z,5.19
2023-02-01T14:40:01.094Z,5.16
2023-02-01T14:45:57.279Z,5.12
2023-02-01T14:51:28.090Z,5.08
2023-02-01T14:56:52.059Z,5.01
2023-02-01T15:02:39.273Z,5.08
2023-02-01T15:08:11.055Z,5.10
2023-02-01T15:13:38.170Z,5.10
2023-02-01T15:19:18.273Z,4.99
2023-02-01T15:24:46.043Z,4.96
2023-02-01T15:30:16.135Z,4.86
2023-02-01T15:35:54.083Z,4.82
2023-02-01T15:41:25.135Z,4.79
2023-02-01T15:46:53.088Z,4.75
2023-02-01T15:52:32.139Z,4.65
2023-02-01T15:57:59.058Z,4.56
2023-02-01T16:03:50.098Z,4.59
2023-02-01T16:09:23.300Z,4.42
2023-02-01T16:14:50.115Z,4.45
2023-02-01T16:20:17.133Z,4.53
2023-02-01T16:25:42.225Z,4.66
2023-02-01T16:31:10.396Z,4.61
2023-02-01T16:36:36.187Z,4.72
2023-02-01T16:42:04.302Z,4.79
2023-02-01T16:47:34.109Z,4.97
2023-02-01T16:52:59.283Z,4.66
2023-02-01T16:58:23.164Z,2.62
2023-02-01T17:03:58.219Z,1.73
2023-02-01T17:09:25.145Z,1.29
2023-02-01T17:14:55.147Z,1.07
2023-02-01T17:20:30.122Z,0.94
2023-02-01T17:25:55.146Z,1.00
2023-02-01T17:31:24.774Z,1.08
2023-02-01T17:36:52.128Z,1.12
2023-02-01T17:42:22.123Z,1.06
2023-02-01T17:47:46.128Z,0.87
2023-02-01T17:53:16.178Z,1.02
2023-02-01T17:58:42.160Z,1.13
2023-02-01T18:04:13.187Z,1.09
2023-02-01T18:09:41.135Z,1.04
2023-02-01T18:15:06.450Z,0.99
2023-02-01T18:20:34.126Z,1.00
2023-02-01T18:26:01.171Z,1.06
2023-02-01T18:31:31.293Z,1.26
2023-02-01T18:36:55.212Z,1.51
2023-02-01T18:42:23.168Z,1.66
2023-02-01T18:47:47.505Z,1.68
2023-02-01T18:53:14.156Z,1.77
2023-02-01T18:58:42.143Z,1.84
2023-02-01T19:04:19.233Z,1.93
2023-02-01T19:09:48.368Z,1.88
2023-02-01T19:15:15.177Z,1.96
2023-02-01T19:20:40.185Z,1.99
2023-02-01T19:26:07.839Z,2.10
2023-02-01T19:31:36.282Z,2.08
2023-02-01T19:37:01.196Z,2.13
2023-02-01T19:42:26.182Z,2.15
2023-02-01T19:47:53.184Z,2.12
2023-02-01T19:53:19.767Z,2.26
2023-02-01T19:58:43.243Z,2.46
2023-02-01T20:04:18.758Z,2.71
2023-02-01T20:09:44.365Z,2.66
2023-02-01T20:15:10.333Z,2.89
2023-02-01T20:20:39.925Z,3.06
2023-02-01T20:26:04.277Z,3.18
2023-02-01T20:31:31.274Z,3.13
2023-02-01T20:36:58.202Z,2.91
2023-02-01T20:42:23.258Z,2.89
2023-02-01T20:47:50.222Z,2.76
2023-02-01T20:53:26.563Z,2.63
2023-02-01T20:58:51.255Z,2.67
2023-02-01T21:04:16.213Z,2.57
2023-02-01T21:09:47.249Z,2.59
2023-02-01T21:15:14.338Z,2.61
2023-02-01T21:20:39.248Z,2.64
2023-02-01T21:26:11.409Z,2.69
2023-02-01T21:31:37.260Z,2.72
2023-02-01T21:37:03.276Z,2.71
2023-02-01T21:42:31.407Z,2.70
2023-02-01T21:47:56.268Z,2.77
2023-02-01T21:53:20.262Z,2.70
2023-02-01T21:58:48.303Z,2.69
2023-02-01T22:04:13.410Z,2.68
2023-02-01T22:09:39.432Z,2.61
2023-02-01T22:15:07.250Z,2.58
2023-02-01T22:20:35.271Z,2.56
2023-02-01T22:26:01.458Z,2.47
2023-02-01T22:31:31.362Z,2.54
2023-02-01T22:36:55.279Z,2.48
2023-02-01T22:42:20.284Z,2.40
2023-02-01T22:47:47.385Z,2.33
2023-02-01T22:53:13.483Z,2.36
2023-02-01T22:58:37.255Z,2.34
2023-02-01T23:04:09.281Z,2.31
2023-02-01T23:09:35.515Z,2.25
2023-02-01T23:15:15.280Z,2.31
2023-02-01T23:20:42.237Z,2.40
2023-02-01T23:26:07.235Z,2.45
2023-02-01T23:31:33.329Z,2.55
2023-02-01T23:37:01.287Z,2.55
2023-02-01T23:42:26.446Z,2.53
2023-02-01T23:47:51.275Z,2.45
2023-02-01T23:53:18.265Z,2.49
2023-02-01T23:58:43.252Z,2.67
